createdAt,value
2022-11-14T00:02:13.773Z,14.51
2022-11-14T00:05:00.237Z,14.51
2022-11-14T00:07:47.434Z,14.46
2022-11-14T00:10:33.825Z,14.41
2022-11-14T00:13:20.662Z,14.43
2022-11-14T00:16:07.240Z,14.78
2022-11-14T00:18:53.644Z,14.39
2022-11-14T00:21:40.290Z,13.02
2022-11-14T00:24:26.430Z,11.93
2022-11-14T00:27:13.096Z,12.01
2022-11-14T00:29:59.675Z,13.18
2022-11-14T00:32:46.314Z,13.73
2022-11-14T00:35:32.821Z,14.33
2022-11-14T00:38:19.026Z,14.53
2022-11-14T00:41:05.559Z,14.99
2022-11-14T00:43:51.918Z,14.58
2022-11-14T00:46:38.673Z,13.01
2022-11-14T00:49:24.812Z,11.79
2022-11-14T00:52:11.099Z,11.99
2022-11-14T00:54:57.707Z,14.17
2022-11-14T00:57:44.398Z,15.13
2022-11-14T01:00:31.179Z,15.71
2022-11-14T01:03:18.116Z,14.50
2022-11-14T01:06:07.777Z,12.84
2022-11-14T01:08:54.377Z,11.64
2022-11-14T01:11:40.364Z,11.66
2022-11-14T01:14:26.368Z,13.54
2022-11-14T01:17:12.568Z,14.58
2022-11-14T01:19:59.071Z,15.49
2022-11-14T01:22:45.228Z,15.15
2022-11-14T01:25:33.792Z,13.38
2022-11-14T01:28:20.150Z,11.95
2022-11-14T01:31:09.858Z,12.14
2022-11-14T01:33:56.295Z,13.90
2022-11-14T01:36:42.815Z,14.83
2022-11-14T01:39:28.894Z,15.19
2022-11-14T01:42:17.465Z,14.70
2022-11-14T01:45:48.895Z,13.10
2022-11-14T01:48:49.304Z,11.55
2022-11-14T01:51:41.838Z,11.94
2022-11-14T01:54:32.891Z,13.50
2022-11-14T01:57:25.390Z,14.23
2022-11-14T02:00:13.132Z,14.88
2022-11-14T02:03:00.864Z,15.39
2022-11-14T02:05:48.832Z,13.77
2022-11-14T02:08:36.741Z,12.30
2022-11-14T02:11:23.381Z,11.26
2022-11-14T02:14:09.834Z,11.69
2022-11-14T02:17:22.702Z,14.18
2022-11-14T02:20:11.845Z,15.47
2022-11-14T02:22:58.403Z,14.86
2022-11-14T02:25:44.652Z,13.06
2022-11-14T02:28:31.442Z,11.71
2022-11-14T02:31:17.747Z,11.77
2022-11-14T02:34:03.966Z,14.07
2022-11-14T02:36:50.697Z,15.21
2022-11-14T02:39:37.069Z,14.48
2022-11-14T02:42:23.610Z,12.77
2022-11-14T02:45:12.266Z,11.45
2022-11-14T02:47:58.667Z,11.29
2022-11-14T02:50:47.921Z,12.53
2022-11-14T02:53:34.660Z,13.42
2022-11-14T02:56:21.013Z,13.92
2022-11-14T02:59:06.928Z,14.93
2022-11-14T03:01:53.202Z,14.55
2022-11-14T03:04:39.704Z,12.90
2022-11-14T03:07:26.302Z,11.61
2022-11-14T03:10:14.019Z,11.97
2022-11-14T03:13:00.719Z,14.13
2022-11-14T03:15:47.154Z,15.20
2022-11-14T03:18:33.701Z,14.93
2022-11-14T03:21:21.707Z,13.26
2022-11-14T03:24:08.263Z,11.85
2022-11-14T03:26:54.715Z,10.88
2022-11-14T03:29:40.986Z,11.41
2022-11-14T03:32:27.545Z,13.81
2022-11-14T03:35:13.764Z,15.23
2022-11-14T03:37:59.843Z,15.31
2022-11-14T03:40:46.047Z,13.60
2022-11-14T03:43:34.173Z,12.17
2022-11-14T03:46:20.630Z,11.16
2022-11-14T03:49:07.268Z,11.40
2022-11-14T03:51:53.802Z,13.30
2022-11-14T03:54:39.822Z,14.55
2022-11-14T03:57:26.028Z,15.15
2022-11-14T04:00:13.210Z,14.58
2022-11-14T04:02:59.562Z,12.87
2022-11-14T04:05:46.356Z,11.58
2022-11-14T04:08:33.315Z,11.73
2022-11-14T04:11:20.096Z,13.50
2022-11-14T04:14:06.866Z,14.32
2022-11-14T04:16:53.228Z,14.71
2022-11-14T04:19:39.488Z,14.47
2022-11-14T04:22:26.057Z,12.89
2022-11-14T04:25:12.499Z,11.60
2022-11-14T04:27:58.798Z,10.70
2022-11-14T04:30:45.450Z,11.11
2022-11-14T04:33:31.875Z,12.69
2022-11-14T04:36:18.032Z,13.69
2022-11-14T04:39:04.823Z,14.19
2022-11-14T04:41:51.142Z,14.52
2022-11-14T04:44:37.441Z,14.86
2022-11-14T04:47:24.010Z,14.39
2022-11-14T04:50:10.544Z,12.79
2022-11-14T04:52:56.774Z,11.54
2022-11-14T04:55:44.887Z,10.66
2022-11-14T04:58:31.322Z,11.05
2022-11-14T05:01:18.050Z,12.57
2022-11-14T05:04:04.444Z,13.33
2022-11-14T05:06:50.722Z,14.20
2022-11-14T05:09:37.058Z,14.88
2022-11-14T05:12:23.470Z,14.73
2022-11-14T05:15:10.011Z,13.08
2022-11-14T05:17:58.449Z,11.74
2022-11-14T05:20:44.846Z,11.02
2022-11-14T05:23:31.131Z,12.46
2022-11-14T05:26:18.524Z,13.83
2022-11-14T05:29:04.603Z,14.47
2022-11-14T05:31:50.908Z,14.57
2022-11-14T05:34:37.362Z,14.07
2022-11-14T05:37:23.770Z,12.61
2022-11-14T05:40:10.495Z,11.39
2022-11-14T05:42:56.701Z,10.52
2022-11-14T05:45:43.371Z,10.97
2022-11-14T05:48:30.758Z,12.43
2022-11-14T05:51:17.069Z,12.71
2022-11-14T05:54:03.216Z,12.85
2022-11-14T05:56:49.839Z,13.04
2022-11-14T05:59:36.153Z,13.19
2022-11-14T06:02:22.681Z,13.22
2022-11-14T06:05:09.548Z,13.23
2022-11-14T06:07:59.383Z,13.13
2022-11-14T06:10:45.976Z,13.62
2022-11-14T06:13:32.832Z,13.61
2022-11-14T06:16:19.863Z,13.33
2022-11-14T06:19:07.146Z,13.07
2022-11-14T06:21:53.394Z,13.03
2022-11-14T06:24:39.563Z,13.73
2022-11-14T06:27:25.679Z,13.43
2022-11-14T06:30:12.621Z,11.98
2022-11-14T06:32:59.360Z,10.81
2022-11-14T06:35:45.797Z,11.56
2022-11-14T06:38:33.518Z,13.92
2022-11-14T06:41:21.786Z,14.41
2022-11-14T06:44:08.836Z,13.23
2022-11-14T06:46:56.400Z,11.62
2022-11-14T06:49:42.750Z,10.55
2022-11-14T06:52:29.217Z,11.03
2022-11-14T06:55:17.689Z,13.37
2022-11-14T06:58:06.060Z,14.53
2022-11-14T07:00:52.342Z,14.55
2022-11-14T07:03:38.617Z,12.86
2022-11-14T07:06:26.882Z,11.48
2022-11-14T07:09:13.269Z,11.53
2022-11-14T07:11:59.607Z,13.45
2022-11-14T07:14:46.238Z,14.31
2022-11-14T07:17:35.772Z,14.19
2022-11-14T07:20:22.157Z,12.60
2022-11-14T07:23:08.806Z,11.32
2022-11-14T07:25:55.203Z,10.47
2022-11-14T07:28:45.932Z,10.97
2022-11-14T07:31:34.664Z,12.85
2022-11-14T07:34:20.772Z,13.35
2022-11-14T07:37:07.224Z,13.39
2022-11-14T07:39:53.806Z,13.29
2022-11-14T07:42:40.393Z,13.33
2022-11-14T07:45:28.147Z,12.23
2022-11-14T07:48:17.499Z,10.92
2022-11-14T07:51:07.097Z,11.23
2022-11-14T07:53:53.713Z,13.23
2022-11-14T07:56:40.074Z,14.29
2022-11-14T07:59:26.262Z,13.48
2022-11-14T08:02:15.863Z,11.90
2022-11-14T08:05:02.204Z,10.73
2022-11-14T08:07:52.530Z,11.96
2022-11-14T08:10:38.860Z,13.58
2022-11-14T08:13:32.204Z,14.42
2022-11-14T08:16:19.487Z,13.91
2022-11-14T08:19:06.320Z,12.04
2022-11-14T08:21:52.456Z,10.81
2022-11-14T08:24:38.941Z,11.40
2022-11-14T08:27:25.811Z,13.20
2022-11-14T08:30:12.583Z,13.34
2022-11-14T08:33:03.345Z,11.90
2022-11-14T08:35:49.451Z,11.30
2022-11-14T08:38:35.677Z,13.01
2022-11-14T08:41:21.886Z,13.79
2022-11-14T08:44:08.526Z,13.80
2022-11-14T08:46:54.707Z,12.27
2022-11-14T08:49:40.982Z,11.03
2022-11-14T08:52:27.553Z,11.05
2022-11-14T08:55:13.703Z,12.94
2022-11-14T08:57:59.821Z,13.82
2022-11-14T09:00:46.929Z,12.70
2022-11-14T09:03:34.524Z,11.28
2022-11-14T09:06:21.090Z,11.78
2022-11-14T09:09:07.346Z,13.03
2022-11-14T09:11:53.442Z,14.11
2022-11-14T09:14:39.657Z,13.21
2022-11-14T09:17:26.199Z,11.66
2022-11-14T09:20:12.515Z,10.66
2022-11-14T09:23:02.999Z,11.14
2022-11-14T09:25:49.463Z,13.71
2022-11-14T09:28:36.781Z,14.55
2022-11-14T09:31:22.998Z,13.64
2022-11-14T09:34:09.388Z,12.01
2022-11-14T09:36:55.800Z,10.82
2022-11-14T09:39:42.537Z,10.76
2022-11-14T09:42:38.147Z,12.28
2022-11-14T09:45:25.451Z,14.10
2022-11-14T09:48:18.558Z,13.98
2022-11-14T09:51:10.536Z,12.26
2022-11-14T09:54:22.401Z,10.88
2022-11-14T09:57:15.424Z,11.02
2022-11-14T10:00:02.090Z,11.87
2022-11-14T10:03:09.065Z,12.44
2022-11-14T10:06:22.686Z,12.89
2022-11-14T10:09:34.027Z,12.95
2022-11-14T10:12:31.104Z,12.41
2022-11-14T10:15:37.353Z,11.05
2022-11-14T10:18:39.002Z,11.35
2022-11-14T10:21:40.599Z,12.02
2022-11-14T10:24:59.289Z,12.03
2022-11-14T10:28:09.633Z,12.24
2022-11-14T10:31:17.461Z,12.40
2022-11-14T10:34:14.138Z,12.37
2022-11-14T10:37:18.139Z,12.42
2022-11-14T10:40:22.224Z,12.34
2022-11-14T10:43:21.736Z,12.36
2022-11-14T10:46:15.167Z,12.46
2022-11-14T10:49:01.671Z,12.45
2022-11-14T10:51:54.326Z,12.43
2022-11-14T10:55:03.254Z,12.65
2022-11-14T10:57:49.623Z,12.98
2022-11-14T11:00:36.151Z,11.71
2022-11-14T11:03:41.295Z,10.51
2022-11-14T11:06:29.376Z,10.68
2022-11-14T11:09:42.328Z,11.68
2022-11-14T11:12:34.923Z,11.82
2022-11-14T11:15:22.762Z,11.80
2022-11-14T11:18:48.508Z,12.22
2022-11-14T11:21:49.449Z,12.73
2022-11-14T11:24:37.932Z,12.52
2022-11-14T11:27:30.421Z,11.32
2022-11-14T11:30:23.357Z,10.60
2022-11-14T11:33:16.878Z,11.85
2022-11-14T11:36:15.140Z,12.21
2022-11-14T11:39:01.887Z,12.54
2022-11-14T11:45:02.571Z,12.27
2022-11-14T11:47:57.770Z,12.50
2022-11-14T11:50:44.274Z,12.91
2022-11-14T11:53:39.250Z,11.73
2022-11-14T11:56:30.535Z,10.45
2022-11-14T11:59:36.596Z,11.02
2022-11-14T12:02:27.243Z,11.65
2022-11-14T12:05:16.437Z,11.73
2022-11-14T12:08:37.545Z,11.90
2022-11-14T12:11:27.417Z,12.04
2022-11-14T12:14:55.762Z,11.93
2022-11-14T12:18:32.184Z,11.84
2022-11-14T12:21:24.811Z,11.88
2022-11-14T12:24:23.765Z,11.99
2022-11-14T12:27:25.564Z,12.20
2022-11-14T12:30:23.621Z,12.26
2022-11-14T12:33:27.037Z,12.19
2022-11-14T12:36:13.946Z,12.07
2022-11-14T12:39:01.942Z,12.08
2022-11-14T12:41:48.316Z,12.28
2022-11-14T12:44:38.715Z,12.37
2022-11-14T12:47:27.489Z,12.15
2022-11-14T12:50:39.429Z,12.09
2022-11-14T12:53:38.217Z,11.94
2022-11-14T12:56:33.286Z,12.05
2022-11-14T12:59:35.421Z,12.35
2022-11-14T13:02:49.263Z,13.19
2022-11-14T13:05:52.051Z,13.01
2022-11-14T13:09:16.065Z,11.41
2022-11-14T13:12:46.266Z,10.03
2022-11-14T13:15:55.120Z,10.67
2022-11-14T13:19:11.260Z,11.51
2022-11-14T13:22:11.960Z,12.51
2022-11-14T13:24:58.299Z,13.08
2022-11-14T13:28:06.505Z,12.44
2022-11-14T13:31:16.101Z,10.84
2022-11-14T13:34:29.379Z,10.21
2022-11-14T13:37:21.993Z,11.94
2022-11-14T13:40:14.237Z,13.24
2022-11-14T13:43:19.997Z,12.78
2022-11-14T13:46:38.728Z,11.15
2022-11-14T13:49:31.114Z,9.95
2022-11-14T13:52:17.312Z,10.35
2022-11-14T13:55:04.622Z,10.98
2022-11-14T13:58:12.679Z,11.24
2022-11-14T14:01:01.797Z,11.37
2022-11-14T14:03:56.738Z,11.46
2022-11-14T14:07:21.134Z,11.55
2022-11-14T14:10:24.472Z,11.56
2022-11-14T14:13:25.900Z,12.10
2022-11-14T14:16:34.001Z,12.63
2022-11-14T14:19:29.680Z,11.71
2022-11-14T14:22:41.385Z,10.45
2022-11-14T14:25:37.052Z,9.49
2022-11-14T14:28:56.571Z,10.05
2022-11-14T14:31:43.998Z,11.95
2022-11-14T14:34:31.819Z,12.29
2022-11-14T14:37:19.710Z,13.06
2022-11-14T14:40:08.834Z,13.72
2022-11-14T14:42:58.853Z,12.61
2022-11-14T14:45:51.661Z,11.08
2022-11-14T14:48:42.214Z,10.03
2022-11-14T14:51:34.140Z,10.49
2022-11-14T14:54:29.919Z,11.64
2022-11-14T14:57:21.304Z,12.23
2022-11-14T15:00:23.374Z,12.36
2022-11-14T15:03:10.741Z,11.79
2022-11-14T15:05:59.459Z,10.59
2022-11-14T15:08:46.465Z,10.13
2022-11-14T15:11:33.813Z,10.76
2022-11-14T15:14:26.682Z,10.97
2022-11-14T15:17:13.570Z,11.17
2022-11-14T15:20:00.280Z,11.31
2022-11-14T15:23:03.866Z,11.53
2022-11-14T15:26:02.762Z,11.57
2022-11-14T15:28:48.923Z,11.57
2022-11-14T15:31:37.092Z,11.57
2022-11-14T15:34:25.457Z,11.56
2022-11-14T15:37:16.559Z,11.72
2022-11-14T15:40:18.958Z,11.69
2022-11-14T15:43:50.587Z,11.59
2022-11-14T15:46:47.581Z,11.49
2022-11-14T15:49:35.799Z,11.57
2022-11-14T15:52:27.155Z,11.55
2022-11-14T15:55:17.606Z,11.51
2022-11-14T15:58:27.237Z,11.53
2022-11-14T16:01:18.937Z,11.58
2022-11-14T16:04:05.568Z,11.54
2022-11-14T16:06:52.463Z,11.47
2022-11-14T16:09:38.853Z,11.50
2022-11-14T16:12:25.130Z,12.13
2022-11-14T16:15:12.095Z,12.01
2022-11-14T16:17:58.940Z,10.87
2022-11-14T16:20:45.369Z,9.84
2022-11-14T16:23:32.150Z,9.89
2022-11-14T16:26:18.905Z,10.53
2022-11-14T16:29:05.148Z,11.31
2022-11-14T16:31:51.892Z,12.19
2022-11-14T16:34:38.452Z,13.05
2022-11-14T16:37:25.570Z,13.04
2022-11-14T16:40:17.149Z,11.60
2022-11-14T16:43:03.736Z,10.30
2022-11-14T16:45:50.537Z,9.45
2022-11-14T16:48:36.653Z,10.22
2022-11-14T16:51:46.668Z,11.56
2022-11-14T16:54:29.434Z,12.35
2022-11-14T16:57:16.044Z,12.21
2022-11-14T17:00:02.373Z,10.93
2022-11-14T17:02:50.085Z,9.87
2022-11-14T17:05:44.409Z,9.86
2022-11-14T17:08:31.156Z,11.67
2022-11-14T17:11:19.029Z,13.02
2022-11-14T17:14:06.028Z,13.23
2022-11-14T17:16:52.515Z,11.58
2022-11-14T17:19:45.758Z,10.31
2022-11-14T17:22:32.694Z,9.40
2022-11-14T17:25:19.150Z,9.68
2022-11-14T17:28:06.274Z,12.03
2022-11-14T17:30:52.493Z,13.24
2022-11-14T17:33:38.935Z,12.23
2022-11-14T17:36:28.178Z,10.66
2022-11-14T17:39:15.244Z,9.49
2022-11-14T17:42:01.518Z,10.09
2022-11-14T17:44:48.847Z,12.71
2022-11-14T17:47:36.183Z,13.46
2022-11-14T17:50:23.404Z,11.95
2022-11-14T17:53:09.998Z,10.54
2022-11-14T17:55:59.559Z,9.55
2022-11-14T17:58:46.684Z,8.86
2022-11-14T18:01:33.050Z,10.43
2022-11-14T18:04:19.795Z,12.29
2022-11-14T18:07:06.506Z,13.38
2022-11-14T18:09:52.761Z,13.72
2022-11-14T18:12:39.231Z,11.93
2022-11-14T18:15:28.122Z,10.40
2022-11-14T18:18:14.698Z,9.39
2022-11-14T18:21:13.720Z,8.83
2022-11-14T18:24:00.300Z,10.83
2022-11-14T18:26:46.966Z,12.96
2022-11-14T18:29:33.399Z,13.72
2022-11-14T18:32:20.251Z,12.21
2022-11-14T18:35:06.803Z,10.66
2022-11-14T18:37:53.635Z,9.56
2022-11-14T18:40:44.234Z,10.08
2022-11-14T18:43:32.852Z,12.51
2022-11-14T18:46:24.624Z,13.42
2022-11-14T18:49:11.361Z,12.16
2022-11-14T18:51:57.700Z,10.62
2022-11-14T18:54:44.192Z,9.50
2022-11-14T18:57:30.708Z,8.76
2022-11-14T19:00:17.177Z,9.97
2022-11-14T19:08:26.980Z,12.56
2022-11-14T19:11:34.353Z,11.12
2022-11-14T19:14:22.086Z,9.75
2022-11-14T19:17:08.912Z,9.05
2022-11-14T19:19:55.813Z,10.32
2022-11-14T19:22:42.092Z,11.59
2022-11-14T19:25:28.513Z,11.96
2022-11-14T19:28:15.171Z,12.95
2022-11-14T19:31:05.807Z,12.70
2022-11-14T19:33:52.154Z,10.96
2022-11-14T19:36:58.912Z,9.69
2022-11-14T19:39:44.966Z,9.13
2022-11-14T19:42:31.199Z,10.57
2022-11-14T19:45:17.841Z,11.23
2022-11-14T19:48:05.499Z,11.63
2022-11-14T19:51:02.518Z,11.86
2022-11-14T19:53:49.524Z,11.61
2022-11-14T19:56:36.290Z,10.23
2022-11-14T19:59:24.663Z,9.89
2022-11-14T20:02:14.533Z,11.01
2022-11-14T20:05:00.866Z,11.28
2022-11-14T20:07:47.101Z,11.62
2022-11-14T20:10:47.506Z,11.95
2022-11-14T20:13:40.187Z,10.86
2022-11-14T20:16:29.562Z,9.51
2022-11-14T20:19:16.745Z,9.57
2022-11-14T20:22:06.475Z,11.94
2022-11-14T20:24:53.128Z,12.52
2022-11-14T20:27:39.695Z,11.19
2022-11-14T20:30:25.860Z,9.86
2022-11-14T20:33:12.557Z,11.35
2022-11-14T20:36:04.677Z,12.81
2022-11-14T20:38:52.490Z,11.74
2022-11-14T20:41:39.125Z,10.12
2022-11-14T20:44:27.839Z,9.00
2022-11-14T20:47:14.615Z,9.95
2022-11-14T20:50:01.275Z,12.43
2022-11-14T20:52:48.334Z,12.95
2022-11-14T20:55:35.282Z,11.52
2022-11-14T20:58:22.560Z,10.08
2022-11-14T21:07:40.149Z,12.29
2022-11-14T21:10:45.309Z,12.70
2022-11-14T21:13:57.356Z,11.36
2022-11-14T21:16:43.609Z,9.71
2022-11-14T21:19:30.096Z,8.68
2022-11-14T21:22:16.967Z,9.44
2022-11-14T21:25:04.090Z,11.13
2022-11-14T21:27:50.465Z,12.40
2022-11-14T21:30:37.521Z,12.50
2022-11-14T21:33:25.844Z,10.96
2022-11-14T21:36:43.392Z,9.59
2022-11-14T21:39:19.976Z,8.59
2022-11-14T21:42:06.221Z,8.98
2022-11-14T21:44:52.744Z,10.41
2022-11-14T21:47:39.222Z,11.43
2022-11-14T21:50:25.932Z,11.89
2022-11-14T21:53:16.112Z,12.28
2022-11-14T21:56:12.606Z,13.13
2022-11-14T21:59:13.561Z,11.73
2022-11-14T22:02:18.875Z,10.23
2022-11-14T22:05:05.252Z,9.12
2022-11-14T22:07:51.692Z,9.49
2022-11-14T22:10:38.130Z,11.66
2022-11-14T22:13:24.287Z,12.44
2022-11-14T22:16:17.614Z,12.49
2022-11-14T22:19:05.482Z,11.18
2022-11-14T22:21:52.913Z,9.94
2022-11-14T22:24:39.269Z,8.98
2022-11-14T22:27:26.364Z,9.07
2022-11-14T22:44:30.297Z,11.32
2022-11-14T22:47:15.218Z,11.45
2022-11-14T22:50:00.299Z,11.56
2022-11-14T22:52:45.079Z,12.60
2022-11-14T22:55:29.986Z,12.76
2022-11-14T22:58:14.856Z,11.43
2022-11-14T23:01:00.915Z,10.03
2022-11-14T23:03:50.086Z,9.01
2022-11-14T23:06:35.338Z,9.04
2022-11-14T23:09:20.084Z,10.32
2022-11-14T23:12:05.415Z,11.24
2022-11-14T23:14:51.673Z,12.00
2022-11-14T23:17:36.494Z,12.22
2022-11-14T23:20:21.425Z,12.49
2022-11-14T23:23:06.263Z,11.91
2022-11-14T23:25:51.332Z,10.46
2022-11-14T23:28:36.527Z,9.37
2022-11-14T23:31:22.921Z,8.59
2022-11-14T23:34:07.968Z,8.94
2022-11-14T23:36:52.883Z,10.58
2022-11-14T23:39:39.492Z,11.31
2022-11-14T23:42:24.560Z,11.91
2022-11-14T23:45:09.445Z,12.22
2022-11-14T23:47:54.193Z,12.35
2022-11-14T23:50:39.137Z,12.43
2022-11-14T23:53:23.831Z,11.50
2022-11-14T23:56:12.459Z,10.22
2022-11-14T23:58:57.640Z,9.21
